Time;durP1;ratioP1;P1;durP2;ratioP2;P2;SDS_P1;SDS_P2;PMS_P1;PMS_P2;Temp;Humidity;BMP_temperature;BMP_pressure;BME280_temperature;BME280_humidity;BME280_pressure;Samples;Min_cycle;Max_cycle;Signal;HPM_P1;HPM_P2
2022/07/06 00:00:05;;;;;;;9.75;3.65;;;;;;;12.66;66.97;102481.25;5071752;28;20033;-93
2022/07/06 00:02:30;;;;;;;5.90;3.17;;;;;;;12.70;67.07;102494.28;5069511;28;20024;-92
2022/07/06 00:04:57;;;;;;;7.13;3.10;;;;;;;12.74;67.42;102503.00;5071191;28;20071;-93
2022/07/06 00:07:23;;;;;;;7.63;3.33;;;;;;;12.66;67.73;102495.44;5070914;28;20024;-92
2022/07/06 00:09:58;;;;;;;6.95;3.03;;;;;;;12.67;66.89;102505.13;5062656;28;20533;-92
2022/07/06 00:12:23;;;;;;;4.95;3.30;;;;;;;12.63;67.65;102503.59;5147489;22;20069;-93
2022/07/06 00:14:48;;;;;;;3.78;3.03;;;;;;;12.62;68.08;102509.88;5090960;28;20066;-92
2022/07/06 00:17:15;;;;;;;11.27;3.85;;;;;;;12.58;68.48;102505.69;5090799;28;20020;-92
2022/07/06 00:19:40;;;;;;;4.57;3.08;;;;;;;12.49;68.41;102503.53;5092154;28;20386;-92
2022/07/06 00:22:05;;;;;;;6.63;3.45;;;;;;;12.55;68.55;102519.19;5094789;28;20046;-91
2022/07/06 00:24:30;;;;;;;4.23;3.13;;;;;;;12.56;68.58;102510.25;5093570;28;20020;-93
2022/07/06 00:26:56;;;;;;;4.83;3.23;;;;;;;12.52;68.84;102514.91;5093306;28;20772;-92
2022/07/06 00:29:21;;;;;;;4.25;3.08;;;;;;;12.47;68.98;102508.97;5093799;28;20356;-92
2022/07/06 00:31:46;;;;;;;8.00;3.10;;;;;;;12.49;68.95;102515.09;5094064;28;20437;-91
2022/07/06 00:34:12;;;;;;;4.65;3.40;;;;;;;12.43;68.60;102503.91;5094848;28;20046;-92
2022/07/06 00:36:37;;;;;;;9.77;3.63;;;;;;;12.40;68.76;102503.13;5093218;28;20201;-92
2022/07/06 00:39:02;;;;;;;4.97;3.23;;;;;;;12.39;69.11;102512.09;5096019;28;20064;-92
2022/07/06 00:41:28;;;;;;;4.53;3.45;;;;;;;12.36;68.73;102508.75;5096796;28;20295;-92
2022/07/06 00:43:55;;;;;;;3.40;3.10;;;;;;;12.39;68.96;102511.25;5098783;28;20517;-93
2022/07/06 00:46:30;;;;;;;3.90;3.50;;;;;;;12.35;68.94;102512.34;5098911;28;20290;-92
2022/07/06 00:48:56;;;;;;;4.88;3.70;;;;;;;12.36;69.68;102512.25;5101831;28;20119;-93
2022/07/06 00:51:29;;;;;;;9.02;4.20;;;;;;;12.33;69.70;102514.25;5105496;28;20020;-91
2022/07/06 00:53:58;;;;;;;3.80;3.25;;;;;;;12.32;69.40;102516.06;5101350;28;20028;-91
2022/07/06 00:56:25;;;;;;;4.15;3.75;;;;;;;12.28;69.74;102503.00;5095152;28;20031;-91
2022/07/06 00:58:50;;;;;;;5.70;4.20;;;;;;;12.27;69.96;102511.91;5081756;28;20118;-90
2022/07/06 01:01:16;;;;;;;5.85;3.60;;;;;;;12.27;69.97;102512.78;5088330;28;20058;-92
2022/07/06 01:08:51;;;;;;;4.90;3.65;;;;;;;12.18;69.77;102508.84;5693065;22;20059;-92
2022/07/06 01:11:18;;;;;;;6.80;3.75;;;;;;;12.14;70.01;102507.31;5094004;28;20051;-92
2022/07/06 01:13:43;;;;;;;8.13;4.47;;;;;;;12.11;70.61;102507.47;5083088;28;20016;-92
2022/07/06 01:16:09;;;;;;;5.60;3.75;;;;;;;12.02;70.46;102505.31;5095745;28;20381;-92
2022/07/06 01:18:34;;;;;;;7.35;4.28;;;;;;;12.00;70.99;102504.53;5094170;28;20062;-91
2022/07/06 01:21:08;;;;;;;7.07;4.03;;;;;;;12.01;70.38;102508.94;5094501;28;20024;-90
2022/07/06 01:23:39;;;;;;;5.38;3.80;;;;;;;11.99;70.58;102510.81;5096197;28;20047;-91
2022/07/06 01:26:05;;;;;;;7.80;3.97;;;;;;;11.98;70.81;102503.78;5095850;28;20020;-91
2022/07/06 01:28:30;;;;;;;6.03;4.47;;;;;;;11.95;70.99;102503.94;5095677;28;20036;-90
2022/07/06 01:30:55;;;;;;;5.07;4.50;;;;;;;11.94;71.16;102508.44;5081210;28;20103;-91
2022/07/06 01:33:21;;;;;;;6.65;4.03;;;;;;;11.91;71.26;102503.25;5091480;28;20495;-91
2022/07/06 01:35:46;;;;;;;5.18;4.50;;;;;;;11.87;71.44;102507.00;5095593;28;20370;-90
2022/07/06 01:38:11;;;;;;;4.78;4.28;;;;;;;11.87;71.31;102503.47;5098974;28;20024;-91
2022/07/06 01:40:37;;;;;;;4.15;3.72;;;;;;;11.90;70.96;102508.66;5096613;28;20020;-90
2022/07/06 01:43:02;;;;;;;6.68;4.50;;;;;;;11.81;71.49;102516.19;5093527;28;20028;-90
2022/07/06 01:45:32;;;;;;;6.13;4.38;;;;;;;11.85;71.10;102508.88;5094130;28;20099;-92
2022/07/06 01:47:57;;;;;;;7.88;5.00;;;;;;;11.82;71.48;102512.59;5087795;28;20407;-90
2022/07/06 01:50:22;;;;;;;11.63;5.10;;;;;;;11.79;71.49;102504.78;5093607;28;20016;-90
2022/07/06 01:52:48;;;;;;;8.90;4.40;;;;;;;11.80;71.62;102505.63;5092052;28;20036;-92
2022/07/06 01:55:13;;;;;;;5.90;4.60;;;;;;;11.76;71.73;102496.09;5081740;28;20297;-91
2022/07/06 01:57:38;;;;;;;7.45;4.93;;;;;;;11.71;71.88;102493.69;5080490;28;20035;-91
2022/07/06 02:00:06;;;;;;;6.25;4.82;;;;;;;11.72;72.27;102503.38;5093106;28;20103;-91
2022/07/06 02:02:32;;;;;;;8.98;4.78;;;;;;;11.70;72.46;102499.09;5077408;28;20020;-91
2022/07/06 02:04:57;;;;;;;6.60;4.95;;;;;;;11.66;72.17;102506.41;5093911;28;20031;-90
2022/07/06 02:07:22;;;;;;;10.40;4.97;;;;;;;11.65;72.49;102510.00;5092115;28;20035;-91
2022/07/06 02:09:47;;;;;;;6.97;4.75;;;;;;;11.61;73.08;102511.97;5092085;28;20065;-91
2022/07/06 02:12:15;;;;;;;6.50;5.00;;;;;;;11.59;72.78;102516.50;5091632;28;20084;-91
2022/07/06 02:14:41;;;;;;;6.78;5.10;;;;;;;11.58;72.86;102513.94;5093319;28;20032;-89
2022/07/06 02:17:06;;;;;;;9.53;5.73;;;;;;;11.57;73.16;102520.19;5091780;28;20036;-89
2022/07/06 02:19:31;;;;;;;10.50;5.72;;;;;;;11.56;73.04;102508.69;5090902;28;20297;-90
2022/07/06 02:21:57;;;;;;;9.60;5.43;;;;;;;11.53;73.36;102508.00;5091938;28;20032;-90
2022/07/06 02:24:22;;;;;;;6.13;5.20;;;;;;;11.51;73.64;102510.75;5092773;28;20114;-90
2022/07/06 02:26:47;;;;;;;8.70;5.65;;;;;;;11.50;73.59;102503.69;5093178;28;20028;-89
2022/07/06 02:29:12;;;;;;;6.15;4.82;;;;;;;11.46;73.81;102505.66;5079557;28;20060;-91
2022/07/06 02:31:38;;;;;;;8.65;5.57;;;;;;;11.45;73.90;102498.63;5092640;28;20397;-91
2022/07/06 02:34:04;;;;;;;7.32;5.70;;;;;;;11.47;73.45;102504.72;5093885;28;20070;-90
2022/07/06 02:36:29;;;;;;;7.82;5.15;;;;;;;11.45;74.07;102503.09;5095577;28;20084;-95
2022/07/06 02:38:54;;;;;;;10.43;5.45;;;;;;;11.47;73.45;102499.41;5097186;28;20519;-93
2022/07/06 02:41:20;;;;;;;6.07;5.20;;;;;;;11.46;73.79;102497.69;5082743;28;20028;-94
2022/07/06 02:43:45;;;;;;;9.77;5.63;;;;;;;11.44;73.52;102501.34;5093911;28;20290;-91
2022/07/06 02:46:10;;;;;;;6.47;5.32;;;;;;;11.41;73.80;102502.41;5084700;28;20036;-89
2022/07/06 02:48:36;;;;;;;7.60;5.78;;;;;;;11.39;74.36;102503.41;5093086;28;20374;-90
2022/07/06 02:51:01;;;;;;;6.00;5.28;;;;;;;11.40;74.39;102499.81;5081242;28;20021;-88
2022/07/06 02:53:26;;;;;;;6.57;5.45;;;;;;;11.38;73.60;102502.56;5090867;28;20066;-91
2022/07/06 02:55:52;;;;;;;8.30;5.45;;;;;;;11.37;74.26;102502.63;5091928;28;20048;-91
2022/07/06 02:58:17;;;;;;;8.02;5.88;;;;;;;11.34;74.37;102513.44;5093271;28;20028;-91
2022/07/06 03:00:43;;;;;;;6.30;5.03;;;;;;;11.37;74.66;102507.97;5093414;28;20020;-91
2022/07/06 03:03:09;;;;;;;7.82;5.38;;;;;;;11.36;74.35;102516.88;5091664;28;20012;-90
2022/07/06 03:05:34;;;;;;;7.45;5.65;;;;;;;11.35;74.43;102510.69;5311896;22;20003;-89
2022/07/06 03:07:59;;;;;;;8.20;5.20;;;;;;;11.30;74.54;102505.59;5091685;28;20028;-92
2022/07/06 03:10:25;;;;;;;8.48;6.00;;;;;;;11.33;74.26;102514.41;5092841;28;20031;-92
2022/07/06 03:12:50;;;;;;;7.05;4.80;;;;;;;11.30;74.56;102505.59;5093028;28;20047;-92
2022/07/06 03:15:15;;;;;;;6.03;5.13;;;;;;;11.27;74.66;102510.25;5078368;28;20028;-91
2022/07/06 03:17:41;;;;;;;9.18;5.15;;;;;;;11.25;74.88;102515.63;5084728;28;20045;-91
2022/07/06 03:20:06;;;;;;;9.52;5.88;;;;;;;11.28;74.94;102525.28;5085991;28;20458;-90
2022/07/06 03:22:32;;;;;;;5.95;5.22;;;;;;;11.31;74.83;102525.13;5089369;28;20024;-89
2022/07/06 03:24:57;;;;;;;7.28;5.50;;;;;;;11.26;74.62;102528.00;5079391;28;20466;-89
2022/07/06 03:27:22;;;;;;;9.77;5.97;;;;;;;11.22;74.65;102515.78;5092699;28;20020;-89
2022/07/06 03:29:48;;;;;;;11.35;5.75;;;;;;;11.24;74.94;102516.59;5092160;28;20052;-89
2022/07/06 03:32:13;;;;;;;8.65;5.55;;;;;;;11.26;74.60;102522.69;5091762;28;20454;-90
2022/07/06 03:34:38;;;;;;;6.90;4.93;;;;;;;11.26;74.88;102519.19;5092574;28;20031;-90
2022/07/06 03:37:04;;;;;;;6.05;5.45;;;;;;;11.24;75.12;102524.56;5092599;28;20282;-90
2022/07/06 03:39:29;;;;;;;6.05;5.18;;;;;;;11.22;75.13;102523.78;5087843;28;20051;-91
2022/07/06 03:41:54;;;;;;;6.95;5.85;;;;;;;11.20;75.34;102519.50;5093373;28;20110;-89
2022/07/06 03:44:20;;;;;;;7.50;5.63;;;;;;;11.25;74.92;102520.09;5093000;28;20032;-89
2022/07/06 03:46:45;;;;;;;7.30;5.90;;;;;;;11.21;75.64;102522.06;5078524;28;20099;-90
2022/07/06 03:49:10;;;;;;;8.05;6.00;;;;;;;11.23;75.35;102524.66;5093179;28;20032;-90
2022/07/06 03:51:36;;;;;;;7.20;5.75;;;;;;;11.21;75.70;102522.06;5089213;28;20029;-89
2022/07/06 03:54:01;;;;;;;6.13;5.47;;;;;;;11.19;75.24;102520.41;5080422;28;20055;-89
2022/07/06 03:56:29;;;;;;;5.97;5.38;;;;;;;11.13;76.00;102512.78;5096092;28;20020;-89
2022/07/06 03:58:59;;;;;;;8.20;5.80;;;;;;;11.18;75.63;102524.88;5095407;28;20052;-89
2022/07/06 04:01:25;;;;;;;8.32;5.90;;;;;;;11.18;76.00;102519.56;5095473;28;20036;-90
2022/07/06 04:03:50;;;;;;;6.40;5.78;;;;;;;11.18;75.77;102513.41;5095378;28;20095;-90
2022/07/06 04:06:16;;;;;;;6.50;5.32;;;;;;;11.11;75.48;102507.53;5095831;28;20570;-90
2022/07/06 04:08:41;;;;;;;6.47;5.63;;;;;;;11.17;76.20;102517.00;5095034;28;20024;-90
2022/07/06 04:11:07;;;;;;;7.90;5.65;;;;;;;11.13;75.81;102510.13;5096867;28;20085;-89
2022/07/06 04:13:33;;;;;;;7.45;5.45;;;;;;;11.18;75.98;102514.25;5095048;28;20046;-89
2022/07/06 04:15:58;;;;;;;8.70;5.82;;;;;;;11.16;76.52;102510.81;5096488;28;20027;-91
2022/07/06 04:18:24;;;;;;;6.80;5.30;;;;;;;11.18;77.03;102513.41;5084970;28;20070;-90
2022/07/06 04:20:49;;;;;;;9.40;5.55;;;;;;;11.17;76.23;102511.66;5105335;28;20011;-90
2022/07/06 04:23:14;;;;;;;9.60;5.55;;;;;;;11.19;76.71;102505.34;5112806;28;20016;-92
2022/07/06 04:25:40;;;;;;;7.53;5.80;;;;;;;11.20;76.96;102506.19;5113638;28;20024;-90
2022/07/06 04:28:05;;;;;;;10.82;5.88;;;;;;;11.21;76.66;102498.13;5108546;28;20020;-91
2022/07/06 04:30:30;;;;;;;8.15;6.18;;;;;;;11.24;76.38;102502.41;5100341;28;20024;-91
2022/07/06 04:32:56;;;;;;;6.30;5.15;;;;;;;11.27;76.53;102505.81;5083028;28;20116;-90
2022/07/06 04:35:21;;;;;;;7.40;5.25;;;;;;;11.25;76.69;102499.69;5085087;28;20205;-90
2022/07/06 04:37:47;;;;;;;7.78;5.68;;;;;;;11.28;77.27;102496.00;5091730;28;20043;-91
2022/07/06 04:40:13;;;;;;;7.35;4.82;;;;;;;11.31;77.54;102498.50;5086428;28;20095;-90
2022/07/06 04:42:39;;;;;;;10.65;5.72;;;;;;;11.35;77.49;102496.53;5092460;28;20012;-90
2022/07/06 04:45:05;;;;;;;8.52;5.45;;;;;;;11.39;77.42;102498.09;5097300;28;20366;-90
2022/07/06 04:47:30;;;;;;;9.82;5.68;;;;;;;11.44;77.31;102494.25;5231854;22;20049;-90
2022/07/06 04:49:55;;;;;;;7.18;5.40;;;;;;;11.54;77.32;102499.94;5055153;28;20519;-89
2022/07/06 04:52:21;;;;;;;13.98;5.88;;;;;;;11.59;77.53;102505.88;5054903;28;20028;-90
2022/07/06 04:54:46;;;;;;;10.20;6.13;;;;;;;11.72;77.05;102505.19;5054776;28;20383;-90
2022/07/06 05:04:59;;;;;;;9.40;5.53;;;;;;;12.13;75.66;102478.94;5073045;28;20052;-91
2022/07/06 05:07:29;;;;;;;8.90;5.82;;;;;;;12.38;75.89;102507.69;5060957;28;20021;-90
2022/07/06 05:10:21;;;;;;;8.50;5.15;;;;;;;12.56;74.74;102507.59;5061106;28;20025;-90
2022/07/06 05:13:40;;;;;;;6.68;4.88;;;;;;;12.76;74.90;102509.94;4988207;28;20129;-90
2022/07/06 05:16:27;;;;;;;5.25;4.75;;;;;;;12.99;74.26;102512.16;4942961;29;20032;-90
2022/07/06 05:18:53;;;;;;;6.10;5.03;;;;;;;13.06;74.19;102500.19;4963791;28;20038;-91
2022/07/06 05:21:25;;;;;;;9.63;4.80;;;;;;;13.14;73.60;102497.91;4973164;28;20115;-87
2022/07/06 05:23:59;;;;;;;5.70;4.47;;;;;;;13.25;73.68;102498.09;4962798;28;20245;-91
2022/07/06 05:37:10;;;;;;;4.60;3.75;;;;;;;13.85;72.86;102521.06;4980693;28;20091;-94
2022/07/06 06:26:29;;;;;;;5.43;2.72;;;;;;;17.94;60.78;102523.88;5383268;22;20365;-87
2022/07/06 06:28:54;;;;;;;5.30;1.92;;;;;;;17.95;60.81;102522.88;5144058;22;20105;-86
2022/07/06 06:31:20;;;;;;;3.30;1.88;;;;;;;17.89;59.49;102518.88;5076256;28;20112;-86
2022/07/06 06:33:45;;;;;;;3.47;2.40;;;;;;;17.79;60.07;102535.84;5089686;28;20036;-86
2022/07/06 06:36:12;;;;;;;5.32;2.10;;;;;;;17.80;59.86;102524.94;5084786;28;20146;-87
2022/07/06 06:38:37;;;;;;;7.97;2.70;;;;;;;17.72;60.34;102530.97;5081989;28;20530;-86
2022/07/06 06:41:02;;;;;;;7.65;2.25;;;;;;;17.63;60.49;102529.00;5075926;28;20020;-85
2022/07/06 06:43:28;;;;;;;7.32;2.40;;;;;;;17.59;61.16;102527.56;5088922;28;20024;-86
2022/07/06 06:45:53;;;;;;;5.22;2.25;;;;;;;17.55;61.81;102539.50;5089286;28;20032;-86
2022/07/06 06:48:19;;;;;;;6.93;2.30;;;;;;;17.50;62.06;102541.69;5506971;22;20431;-85
2022/07/06 06:50:45;;;;;;;8.95;2.53;;;;;;;17.50;62.28;102537.22;5072814;28;20040;-85
2022/07/06 06:53:10;;;;;;;4.88;2.40;;;;;;;17.57;62.14;102532.19;5066930;28;20040;-85
2022/07/06 06:55:35;;;;;;;8.18;2.72;;;;;;;17.71;61.03;102541.84;5067183;28;20041;-85
2022/07/06 06:58:01;;;;;;;6.32;2.40;;;;;;;17.78;61.65;102539.50;5059050;28;20037;-88
2022/07/06 07:00:26;;;;;;;4.53;2.30;;;;;;;17.86;59.69;102537.06;5052253;28;20049;-89
2022/07/06 07:02:54;;;;;;;8.35;2.38;;;;;;;18.01;59.18;102541.22;5069027;28;20017;-88
2022/07/06 07:05:20;;;;;;;12.80;2.20;;;;;;;18.26;58.61;102537.38;5069976;28;20028;-85
2022/07/06 07:07:45;;;;;;;4.32;3.13;;;;;;;18.60;58.09;102541.78;5069961;28;20271;-85
2022/07/06 07:10:11;;;;;;;2.65;1.60;;;;;;;18.97;56.14;102539.56;5070706;28;20031;-89
2022/07/06 07:12:43;;;;;;;2.50;1.50;;;;;;;19.32;56.05;102540.19;5070327;28;20115;-87
2022/07/06 07:15:08;;;;;;;5.43;1.58;;;;;;;19.64;54.59;102545.44;5070844;28;20019;-87
2022/07/06 07:17:34;;;;;;;5.10;1.27;;;;;;;19.76;53.41;102543.53;5070362;28;20028;-87
2022/07/06 07:19:59;;;;;;;2.25;1.35;;;;;;;20.15;53.60;102540.91;5066551;28;20111;-89
2022/07/06 07:22:25;;;;;;;2.07;1.00;;;;;;;20.40;51.04;102536.84;5070825;28;20029;-89
2022/07/06 07:24:50;;;;;;;3.90;1.00;;;;;;;20.54;49.94;102540.13;5064931;28;20294;-86
2022/07/06 07:27:15;;;;;;;2.50;0.68;;;;;;;20.81;48.76;102539.44;5068955;28;20275;-83
2022/07/06 07:29:40;;;;;;;1.25;0.70;;;;;;;21.06;47.58;102536.09;5065767;28;20089;-86
2022/07/06 07:32:06;;;;;;;1.87;0.90;;;;;;;21.21;46.34;102539.19;5071689;28;20032;-87
2022/07/06 07:34:31;;;;;;;2.30;0.55;;;;;;;21.39;45.23;102536.59;5061595;28;20294;-89
2022/07/06 07:36:57;;;;;;;2.63;0.73;;;;;;;21.55;45.00;102532.41;5073604;28;20028;-89
2022/07/06 07:39:22;;;;;;;2.80;0.70;;;;;;;21.86;44.09;102543.81;5073796;28;20395;-88
2022/07/06 07:41:50;;;;;;;2.13;0.70;;;;;;;21.93;42.81;102531.41;5071925;28;20099;-88
2022/07/06 07:44:15;;;;;;;2.53;0.65;;;;;;;22.08;44.88;102542.56;5073234;28;20774;-88
2022/07/06 07:46:41;;;;;;;4.07;1.05;;;;;;;22.48;43.19;102538.59;5072892;28;20028;-89
2022/07/06 07:49:06;;;;;;;0.95;0.50;;;;;;;22.54;41.29;102542.53;5057706;28;20040;-88
2022/07/06 07:51:31;;;;;;;2.13;0.50;;;;;;;22.74;40.47;102545.91;5073122;28;20036;-87
2022/07/06 07:53:59;;;;;;;0.97;0.37;;;;;;;23.05;40.88;102535.47;5076164;28;20482;-87
2022/07/06 07:56:25;;;;;;;2.97;0.60;;;;;;;23.30;39.52;102535.69;5071494;28;20287;-88
2022/07/06 07:58:50;;;;;;;0.77;0.50;;;;;;;23.27;39.14;102538.69;5084017;28;20375;-86
2022/07/06 08:01:15;;;;;;;1.83;0.47;;;;;;;23.59;39.11;102535.28;5084870;28;20275;-88
2022/07/06 08:03:41;;;;;;;1.52;0.60;;;;;;;23.70;37.44;102531.47;5083056;28;20315;-88
2022/07/06 08:06:06;;;;;;;1.02;0.55;;;;;;;24.00;37.12;102523.78;5075114;28;20056;-88
2022/07/06 08:08:31;;;;;;;1.42;0.55;;;;;;;24.10;36.90;102523.63;5073784;28;20020;-87
2022/07/06 08:10:57;;;;;;;2.58;0.65;;;;;;;24.27;37.83;102500.94;5074864;28;20027;-86
2022/07/06 08:13:22;;;;;;;2.50;0.90;;;;;;;24.40;37.06;102516.72;5067220;22;1023855;-47
2022/07/06 08:15:47;;;;;;;2.45;0.68;;;;;;;24.74;35.46;102522.00;5100296;28;20036;-50
2022/07/06 08:18:13;;;;;;;1.23;0.52;;;;;;;24.78;35.89;102525.25;5105346;28;20037;-49
2022/07/06 08:20:38;;;;;;;0.73;0.40;;;;;;;24.85;35.18;102518.09;5104123;28;20028;-49
2022/07/06 08:23:04;;;;;;;2.50;0.77;;;;;;;24.82;36.25;102528.47;5105586;28;20282;-49
2022/07/06 08:25:30;;;;;;;1.58;0.50;;;;;;;24.99;36.66;102529.28;5105713;28;20478;-49
2022/07/06 08:27:56;;;;;;;1.83;0.50;;;;;;;25.10;35.39;102518.91;5107234;28;20297;-48
2022/07/06 08:30:21;;;;;;;1.23;0.50;;;;;;;25.34;35.71;102517.16;5118180;28;20012;-52
2022/07/06 08:35:22;;;;;;;2.25;0.75;;;;;;;25.67;34.77;102508.88;5074787;28;20311;-78
2022/07/06 08:37:47;;;;;;;1.13;0.40;;;;;;;25.36;33.46;102514.28;5072284;28;20375;-79
2022/07/06 08:40:12;;;;;;;4.53;0.57;;;;;;;25.25;33.72;102512.75;5074976;28;20490;-81
2022/07/06 08:42:38;;;;;;;2.03;0.50;;;;;;;25.45;34.49;102514.06;5076866;28;20287;-80
2022/07/06 08:45:06;;;;;;;1.98;0.60;;;;;;;25.73;34.97;102510.03;5066108;28;20663;-81
2022/07/06 08:47:34;;;;;;;1.85;0.65;;;;;;;25.96;34.25;102510.13;5076126;28;20036;-82
2022/07/06 08:50:02;;;;;;;1.92;0.57;;;;;;;25.87;33.29;102506.56;5076492;28;20076;-82
2022/07/06 08:52:27;;;;;;;0.77;0.30;;;;;;;25.62;33.70;102505.84;5077002;28;20381;-82
2022/07/06 08:54:53;;;;;;;1.95;0.80;;;;;;;25.46;33.82;102506.75;5062656;28;20112;-82
2022/07/06 08:57:19;;;;;;;1.63;0.55;;;;;;;25.42;34.37;102500.81;5061182;28;20359;-83
2022/07/06 08:59:44;;;;;;;3.40;0.98;;;;;;;25.07;35.62;102502.09;5056386;28;20029;-81
2022/07/06 09:02:11;;;;;;;5.03;0.80;;;;;;;25.15;34.87;102498.50;5060665;28;20462;-80
2022/07/06 09:04:37;;;;;;;1.30;0.60;;;;;;;24.96;35.20;102503.28;5071023;28;20028;-82
2022/07/06 09:07:03;;;;;;;1.38;0.55;;;;;;;25.22;35.83;102496.78;5061079;28;20020;-80
2022/07/06 09:09:32;;;;;;;1.63;0.55;;;;;;;25.40;34.97;102502.03;5075766;28;20017;-81
2022/07/06 09:11:58;;;;;;;2.70;0.50;;;;;;;25.53;34.28;102499.59;5057634;28;20028;-83
2022/07/06 09:14:24;;;;;;;1.05;0.50;;;;;;;25.94;35.33;102495.81;5075880;28;20028;-79
2022/07/06 09:17:03;;;;;;;4.30;0.70;;;;;;;26.15;34.76;102496.03;5075076;28;20033;-78
2022/07/06 09:19:30;;;;;;;1.73;0.70;;;;;;;26.13;33.68;102497.22;5074790;28;20028;-79
2022/07/06 09:21:55;;;;;;;2.17;0.90;;;;;;;26.03;33.60;102497.50;5056841;28;20475;-79
2022/07/06 09:24:20;;;;;;;1.63;0.60;;;;;;;25.99;33.55;102493.41;5068926;28;20074;-79
2022/07/06 09:26:50;;;;;;;1.30;0.40;;;;;;;25.76;33.73;102504.25;5068498;28;20035;-79
2022/07/06 09:29:15;;;;;;;1.80;0.55;;;;;;;25.97;33.50;102504.50;5054834;28;20286;-78
2022/07/06 09:31:40;;;;;;;2.85;0.50;;;;;;;25.79;33.68;102503.88;5074888;28;20016;-79
2022/07/06 09:34:09;;;;;;;4.37;0.80;;;;;;;25.74;33.20;102507.13;5075699;28;20052;-78
2022/07/06 09:36:48;;;;;;;3.15;0.77;;;;;;;25.98;34.46;102508.06;5074293;28;20291;-79
2022/07/06 09:39:34;;;;;;;2.05;0.68;;;;;;;26.34;35.34;102504.75;5056927;28;20032;-80
2022/07/06 09:42:00;;;;;;;3.33;0.52;;;;;;;26.04;32.15;102508.19;5068211;28;20033;-79
2022/07/06 09:44:28;;;;;;;1.33;0.60;;;;;;;26.11;32.48;102505.59;5064189;28;20549;-79
2022/07/06 09:46:56;;;;;;;3.08;0.60;;;;;;;25.82;31.87;102501.66;5063024;28;20029;-80
2022/07/06 09:49:22;;;;;;;1.65;0.40;;;;;;;25.61;33.79;102507.72;5075411;28;20020;-79
2022/07/06 09:51:49;;;;;;;4.00;0.57;;;;;;;25.62;33.61;102505.84;5074041;28;20367;-79
2022/07/06 09:54:16;;;;;;;1.35;0.60;;;;;;;25.42;34.82;102514.41;5062436;28;20037;-80
2022/07/06 09:56:47;;;;;;;3.85;0.80;;;;;;;25.32;34.23;102508.34;5069372;28;20029;-79
2022/07/06 09:59:14;;;;;;;0.95;0.52;;;;;;;25.35;34.36;102512.56;5071332;28;20081;-78
2022/07/06 10:01:41;;;;;;;3.10;0.68;;;;;;;25.16;34.33;102511.06;5057148;28;20028;-79
2022/07/06 10:04:08;;;;;;;2.55;0.50;;;;;;;25.07;34.92;102519.25;5073581;28;20040;-78
2022/07/06 10:06:34;;;;;;;1.33;0.60;;;;;;;25.03;34.15;102511.59;5073483;28;20111;-79
2022/07/06 10:08:59;;;;;;;1.80;0.43;;;;;;;25.12;33.89;102507.88;5070367;28;20103;-80
2022/07/06 10:11:27;;;;;;;2.47;0.63;;;;;;;25.06;34.19;102512.13;5076725;28;20078;-80
2022/07/06 10:13:55;;;;;;;3.13;0.82;;;;;;;25.07;34.80;102513.81;5054129;28;20024;-81
2022/07/06 10:16:23;;;;;;;0.65;0.30;;;;;;;24.99;33.75;102518.44;5075025;28;20028;-82
2022/07/06 10:18:55;;;;;;;2.25;0.60;;;;;;;25.02;35.07;102518.91;5057450;28;20028;-82
2022/07/06 10:21:23;;;;;;;1.17;0.35;;;;;;;24.74;33.13;102522.00;5072847;28;20021;-81
2022/07/06 10:23:53;;;;;;;2.28;0.50;;;;;;;24.88;34.73;102520.47;5071056;28;20025;-80
2022/07/06 10:26:20;;;;;;;1.38;0.50;;;;;;;24.66;35.16;102521.16;5068389;28;20025;-79
2022/07/06 10:28:48;;;;;;;1.65;0.50;;;;;;;24.67;35.12;102528.31;5062643;28;20091;-78
2022/07/06 10:31:17;;;;;;;0.73;0.60;;;;;;;24.93;34.31;102520.81;5071284;28;20052;-77
2022/07/06 10:33:43;;;;;;;2.33;0.65;;;;;;;24.87;34.48;102517.94;5075142;28;20056;-78
2022/07/06 10:36:10;;;;;;;1.48;0.60;;;;;;;25.06;33.59;102516.69;5075244;28;20112;-78
2022/07/06 10:38:35;;;;;;;1.90;0.68;;;;;;;24.90;35.20;102518.44;5075146;28;20037;-78
2022/07/06 10:41:06;;;;;;;2.00;0.68;;;;;;;24.88;34.78;102516.91;5075153;28;20037;-78
2022/07/06 10:43:36;;;;;;;2.22;0.52;;;;;;;24.91;33.56;102508.41;5075040;28;20409;-78
2022/07/06 10:46:09;;;;;;;3.00;0.50;;;;;;;25.02;33.95;102518.91;5061977;28;20375;-78
2022/07/06 10:48:39;;;;;;;1.27;0.57;;;;;;;24.86;35.12;102511.63;5071428;28;20028;-78
2022/07/06 10:51:05;;;;;;;0.82;0.50;;;;;;;24.89;34.73;102510.44;5088281;28;20077;-78
2022/07/06 10:53:33;;;;;;;3.35;0.60;;;;;;;24.93;34.69;102514.50;5090915;28;20025;-79
2022/07/06 10:56:02;;;;;;;1.33;0.50;;;;;;;24.74;33.93;102508.41;5075580;28;20414;-78
2022/07/06 10:58:53;;;;;;;3.85;0.63;;;;;;;25.10;34.91;102505.31;5074242;28;20119;-78
2022/07/06 11:01:20;;;;;;;1.73;0.60;;;;;;;24.86;32.17;102503.47;5057096;28;20036;-79
2022/07/06 11:03:50;;;;;;;1.58;0.75;;;;;;;25.00;32.73;102506.53;5074903;28;20024;-79
2022/07/06 11:06:24;;;;;;;2.17;0.50;;;;;;;25.06;34.34;102500.38;5073874;28;20029;-78
2022/07/06 11:08:57;;;;;;;3.20;0.65;;;;;;;25.29;34.18;102500.53;5072262;28;20020;-79
2022/07/06 11:11:38;;;;;;;3.40;0.70;;;;;;;25.23;33.92;102496.63;5074402;28;20118;-81
2022/07/06 11:14:05;;;;;;;4.40;0.50;;;;;;;25.42;32.85;102495.38;5069855;28;20021;-78
2022/07/06 11:16:36;;;;;;;4.82;0.60;;;;;;;25.46;32.99;102501.31;5054266;28;20433;-77
2022/07/06 11:19:05;;;;;;;0.80;0.47;;;;;;;25.35;31.76;102501.69;5073363;28;20041;-78
2022/07/06 11:21:36;;;;;;;1.48;0.52;;;;;;;25.30;33.97;102494.06;5067535;28;20047;-79
2022/07/06 11:24:03;;;;;;;2.38;0.65;;;;;;;25.59;34.19;102498.88;5071140;28;20035;-79
2022/07/06 11:26:30;;;;;;;1.50;0.60;;;;;;;25.81;32.84;102490.94;5075197;28;20051;-79
2022/07/06 11:28:58;;;;;;;4.95;0.45;;;;;;;26.07;31.73;102497.97;5049242;28;20023;-79
2022/07/06 11:31:23;;;;;;;3.53;0.67;;;;;;;26.15;31.73;102500.66;5071822;28;20035;-79
2022/07/06 11:33:51;;;;;;;3.05;0.57;;;;;;;26.12;30.72;102499.13;5066059;28;20291;-79
2022/07/06 11:36:21;;;;;;;1.33;0.60;;;;;;;26.57;29.95;102496.56;5074539;28;20024;-79
2022/07/06 11:38:48;;;;;;;2.03;0.57;;;;;;;26.80;29.44;102485.66;5053269;28;20036;-80
2022/07/06 11:41:15;;;;;;;1.52;0.52;;;;;;;27.01;29.66;102486.78;5054949;28;20124;-78
2022/07/06 11:43:43;;;;;;;0.63;0.47;;;;;;;27.20;29.51;102479.94;5056962;28;20033;-81
2022/07/06 11:46:41;;;;;;;1.70;0.50;;;;;;;27.65;30.00;102481.59;5069480;28;20040;-80
2022/07/06 11:49:09;;;;;;;2.33;0.50;;;;;;;27.46;27.94;102471.28;5030733;28;20037;-81
2022/07/06 11:51:39;;;;;;;4.00;0.60;;;;;;;27.64;28.48;102460.78;5073131;28;20036;-80
2022/07/06 11:54:13;;;;;;;1.70;0.45;;;;;;;27.59;29.45;102462.41;5062969;28;20076;-80
2022/07/06 11:56:46;;;;;;;1.67;0.40;;;;;;;27.58;27.40;102453.38;5068209;28;20453;-80
2022/07/06 11:59:11;;;;;;;1.40;0.40;;;;;;;27.48;27.73;102461.88;5086449;28;20033;-81
2022/07/06 12:01:41;;;;;;;2.85;0.60;;;;;;;27.52;27.44;102465.06;5078914;28;20039;-81
2022/07/06 12:04:07;;;;;;;1.67;0.45;;;;;;;27.95;27.19;102459.69;5081350;28;20036;-79
2022/07/06 12:06:33;;;;;;;2.25;0.60;;;;;;;27.95;26.89;102456.97;5041258;28;20447;-80
2022/07/06 12:09:03;;;;;;;0.80;0.30;;;;;;;28.01;27.37;102449.88;5080038;28;20021;-80
2022/07/06 12:11:30;;;;;;;0.88;0.43;;;;;;;28.47;27.93;102445.88;5051456;28;20024;-80
2022/07/06 12:14:00;;;;;;;1.90;0.70;;;;;;;28.17;26.31;102437.84;5063222;28;20032;-80
2022/07/06 12:16:33;;;;;;;1.45;0.50;;;;;;;28.30;26.88;102431.66;5060722;28;20092;-80
2022/07/06 12:18:58;;;;;;;3.60;0.50;;;;;;;28.05;27.41;102429.34;5067142;28;20025;-79
2022/07/06 12:21:24;;;;;;;4.68;0.75;;;;;;;28.06;27.35;102425.53;5079100;28;20059;-79
2022/07/06 12:23:51;;;;;;;1.88;0.50;;;;;;;27.92;26.36;102418.25;5078551;28;20032;-79
2022/07/06 12:26:24;;;;;;;2.28;0.70;;;;;;;27.82;27.37;102426.75;5071517;28;20036;-79
2022/07/06 12:29:12;;;;;;;1.40;0.57;;;;;;;27.92;26.96;102429.16;5088565;28;20008;-79
2022/07/06 12:31:41;;;;;;;1.80;0.65;;;;;;;27.89;27.45;102427.66;5080405;28;20028;-78
2022/07/06 12:34:19;;;;;;;2.33;0.43;;;;;;;28.11;27.63;102420.38;5080466;28;20057;-79
2022/07/06 12:36:47;;;;;;;2.13;0.70;;;;;;;27.79;26.96;102419.78;5099416;28;20055;-80